createdAt,value
2023-04-25T00:01:57.800Z,8.80
2023-04-25T00:04:24.985Z,8.30
2023-04-25T00:06:53.419Z,7.90
2023-04-25T00:09:20.312Z,6.80
2023-04-25T00:11:47.157Z,7.60
2023-04-25T00:15:27.959Z,6.60
2023-04-25T00:17:54.796Z,7.50
2023-04-25T00:20:23.034Z,7.20
2023-04-25T00:22:50.564Z,8.20
2023-04-25T00:25:17.642Z,8.50
2023-04-25T00:27:44.437Z,7.40
2023-04-25T00:30:12.368Z,8.20
2023-04-25T00:32:39.202Z,7.60
2023-04-25T00:35:06.977Z,7.90
2023-04-25T00:37:33.835Z,7.80
2023-04-25T00:40:00.699Z,7.20
2023-04-25T00:42:27.505Z,6.40
2023-04-25T00:44:54.414Z,7.00
2023-04-25T00:47:21.256Z,6.50
2023-04-25T00:49:48.321Z,6.30
2023-04-25T00:52:15.583Z,7.20
2023-04-25T00:54:42.432Z,7.10
2023-04-25T00:57:09.556Z,7.10
2023-04-25T00:59:36.545Z,7.80
2023-04-25T01:02:03.422Z,7.90
2023-04-25T01:04:30.398Z,7.70
2023-04-25T01:06:57.857Z,6.80
2023-04-25T01:09:24.983Z,6.00
2023-04-25T01:11:51.852Z,6.30
2023-04-25T01:14:18.673Z,6.60
2023-04-25T01:16:46.032Z,6.80
2023-04-25T01:19:13.424Z,7.00
2023-04-25T01:21:40.286Z,6.80
2023-04-25T01:24:07.400Z,7.30
2023-04-25T01:26:34.307Z,7.40
2023-04-25T01:29:01.265Z,7.40
2023-04-25T01:31:28.992Z,7.30
2023-04-25T01:33:55.857Z,7.00
2023-04-25T01:36:22.974Z,7.00
2023-04-25T01:38:50.116Z,6.30
2023-04-25T01:41:18.130Z,6.70
2023-04-25T01:43:45.143Z,6.80
2023-04-25T01:46:12.760Z,7.10
2023-04-25T01:48:39.581Z,6.70
2023-04-25T01:51:07.395Z,6.60
2023-04-25T01:53:34.594Z,6.50
2023-04-25T01:56:02.607Z,7.30
2023-04-25T01:58:33.773Z,6.90
2023-04-25T02:01:27.087Z,6.50
2023-04-25T02:04:08.958Z,6.90
2023-04-25T02:06:37.288Z,7.10
2023-04-25T02:09:04.222Z,6.50
2023-04-25T02:11:31.171Z,7.30
2023-04-25T02:14:16.863Z,8.40
2023-04-25T02:17:06.885Z,7.50
2023-04-25T02:19:33.865Z,8.10
2023-04-25T02:22:01.116Z,8.10
2023-04-25T02:24:29.049Z,7.30
2023-04-25T02:26:57.170Z,7.70
2023-04-25T02:29:24.106Z,8.00
2023-04-25T02:31:51.350Z,7.20
2023-04-25T02:34:18.287Z,6.70
2023-04-25T02:36:45.115Z,7.30
2023-04-25T02:39:12.012Z,6.70
2023-04-25T02:41:39.296Z,7.20
2023-04-25T02:44:06.332Z,7.20
2023-04-25T02:49:05.029Z,7.60
2023-04-25T02:51:32.202Z,7.60
2023-04-25T02:53:59.735Z,7.00
2023-04-25T02:56:27.379Z,6.70
2023-04-25T02:58:54.804Z,6.60
2023-04-25T03:01:22.261Z,7.30
2023-04-25T03:03:49.789Z,7.50
2023-04-25T03:06:17.037Z,8.00
2023-04-25T03:08:44.521Z,8.10
2023-04-25T03:11:11.738Z,8.00
2023-04-25T03:13:38.701Z,7.50
2023-04-25T03:16:06.554Z,7.40
2023-04-25T03:18:33.476Z,7.60
2023-04-25T03:21:00.616Z,6.30
2023-04-25T03:23:27.525Z,5.70
2023-04-25T03:25:54.333Z,6.70
2023-04-25T03:28:21.595Z,6.80
2023-04-25T03:30:48.554Z,6.90
2023-04-25T03:33:15.674Z,7.00
2023-04-25T03:35:43.675Z,7.10
2023-04-25T03:38:10.953Z,7.50
2023-04-25T03:40:39.645Z,7.50
2023-04-25T03:43:16.347Z,7.40
2023-04-25T03:45:48.236Z,7.00
2023-04-25T03:48:15.791Z,6.80
2023-04-25T03:50:43.547Z,6.70
2023-04-25T03:53:10.352Z,7.50
2023-04-25T03:55:57.169Z,7.70
2023-04-25T03:58:25.435Z,6.90
2023-04-25T04:00:52.305Z,7.70
2023-04-25T04:03:19.760Z,7.90
2023-04-25T04:05:47.695Z,7.90
2023-04-25T04:08:14.656Z,7.90
2023-04-25T04:10:42.469Z,7.50
2023-04-25T04:13:09.622Z,7.80
2023-04-25T04:15:36.845Z,7.60
2023-04-25T04:18:04.054Z,8.10
2023-04-25T04:20:31.614Z,8.10
2023-04-25T04:22:58.483Z,7.70
2023-04-25T04:25:25.692Z,7.80
2023-04-25T04:28:22.883Z,8.70
2023-04-25T04:31:02.146Z,7.50
2023-04-25T04:33:29.319Z,6.60
2023-04-25T04:36:00.124Z,7.40
2023-04-25T04:38:27.842Z,7.40
2023-04-25T04:40:57.329Z,7.00
2023-04-25T04:43:44.491Z,6.90
2023-04-25T04:46:43.209Z,7.10
2023-04-25T04:49:33.644Z,7.10
2023-04-25T04:52:21.117Z,6.40
2023-04-25T04:54:53.723Z,6.80
2023-04-25T04:57:43.680Z,6.40
2023-04-25T05:00:34.385Z,5.70
2023-04-25T05:03:17.567Z,5.60
2023-04-25T05:06:06.534Z,6.20
2023-04-25T05:08:53.950Z,6.20
2023-04-25T05:11:38.103Z,5.90
2023-04-25T05:14:25.017Z,6.40
2023-04-25T05:17:09.472Z,5.80
2023-04-25T05:22:27.899Z,6.10
2023-04-25T05:25:17.856Z,6.50
2023-04-25T05:27:58.233Z,6.50
2023-04-25T05:30:45.435Z,5.60
2023-04-25T05:33:18.555Z,5.90
2023-04-25T05:35:45.975Z,5.30
2023-04-25T05:38:12.794Z,5.90
2023-04-25T05:40:58.510Z,5.20
2023-04-25T05:43:52.072Z,6.10
2023-04-25T05:46:24.434Z,6.30
2023-04-25T05:49:26.629Z,5.90
2023-04-25T05:51:53.601Z,6.10
2023-04-25T05:54:38.983Z,6.10
2023-04-25T05:57:05.879Z,6.00
2023-04-25T05:59:32.924Z,5.90
2023-04-25T06:02:00.011Z,5.70
2023-04-25T06:04:27.700Z,5.40
2023-04-25T06:06:54.774Z,5.40
2023-04-25T06:09:22.784Z,5.90
2023-04-25T06:11:49.824Z,6.10
2023-04-25T06:14:17.468Z,5.70
2023-04-25T06:16:47.731Z,5.90
2023-04-25T06:19:14.626Z,6.20
2023-04-25T06:21:44.226Z,6.20
2023-04-25T06:24:11.305Z,5.90
2023-04-25T06:26:38.222Z,5.20
2023-04-25T06:29:05.386Z,5.60
2023-04-25T06:31:34.093Z,5.60
2023-04-25T06:34:01.351Z,5.60
2023-04-25T06:36:28.830Z,5.70
2023-04-25T06:39:00.298Z,5.20
2023-04-25T06:41:27.143Z,6.30
2023-04-25T06:43:58.027Z,5.60
2023-04-25T06:46:39.305Z,5.50
2023-04-25T06:49:06.426Z,4.60
2023-04-25T06:51:33.790Z,5.20
2023-04-25T06:54:01.110Z,5.70
2023-04-25T06:56:32.094Z,4.70
2023-04-25T06:59:06.001Z,6.10
2023-04-25T07:01:37.999Z,4.90
2023-04-25T07:04:08.819Z,5.40
2023-04-25T07:06:43.486Z,5.90
2023-04-25T07:09:13.951Z,5.30
2023-04-25T07:11:42.153Z,5.10
2023-04-25T07:14:09.187Z,5.50
2023-04-25T07:16:36.128Z,5.20
2023-04-25T07:19:03.330Z,7.30
2023-04-25T07:21:32.045Z,5.30
2023-04-25T07:24:01.056Z,4.70
2023-04-25T07:26:31.782Z,4.80
2023-04-25T07:29:17.433Z,4.90
2023-04-25T07:31:44.344Z,4.90
2023-04-25T07:34:11.303Z,5.30
2023-04-25T07:36:38.847Z,4.70
2023-04-25T07:39:05.986Z,4.80
2023-04-25T07:41:33.057Z,5.40
2023-04-25T07:44:00.031Z,5.00
2023-04-25T07:46:27.212Z,5.10
2023-04-25T07:48:54.381Z,5.20
2023-04-25T07:51:23.272Z,5.30
2023-04-25T07:53:52.434Z,4.80
2023-04-25T07:56:20.903Z,6.10
2023-04-25T07:58:48.273Z,5.10
2023-04-25T08:01:15.491Z,4.00
2023-04-25T08:03:55.173Z,4.20
2023-04-25T08:06:54.930Z,3.80
2023-04-25T08:09:28.210Z,4.30
2023-04-25T08:11:56.031Z,4.20
2023-04-25T08:14:26.758Z,4.10
2023-04-25T08:16:53.997Z,4.20
2023-04-25T08:19:21.106Z,3.70
2023-04-25T08:21:48.071Z,4.20
2023-04-25T08:24:17.929Z,4.50
2023-04-25T08:26:44.925Z,4.20
2023-04-25T08:29:15.859Z,4.60
2023-04-25T08:31:43.596Z,4.80
2023-04-25T08:34:10.859Z,4.00
2023-04-25T08:36:45.944Z,3.80
2023-04-25T08:39:31.275Z,4.30
2023-04-25T08:42:16.952Z,4.40
2023-04-25T08:44:44.209Z,3.50
2023-04-25T08:47:11.482Z,4.20
2023-04-25T08:49:51.404Z,4.10
2023-04-25T08:52:18.602Z,3.90
2023-04-25T08:54:45.891Z,3.50
2023-04-25T08:57:13.035Z,3.40
2023-04-25T08:59:40.745Z,3.50
2023-04-25T09:02:09.443Z,3.60
2023-04-25T09:04:36.512Z,3.80
2023-04-25T09:07:03.558Z,3.40
2023-04-25T09:09:30.568Z,3.60
2023-04-25T09:11:58.167Z,4.10
2023-04-25T09:14:27.062Z,3.90
2023-04-25T09:17:06.347Z,4.90
2023-04-25T09:19:41.996Z,3.70
2023-04-25T09:22:16.994Z,4.10
2023-04-25T09:24:45.251Z,3.40
2023-04-25T09:27:13.650Z,3.10
2023-04-25T09:29:42.003Z,3.70
2023-04-25T09:32:22.506Z,3.70
2023-04-25T09:34:55.034Z,3.60
2023-04-25T09:37:27.365Z,3.40
2023-04-25T09:40:07.344Z,3.40
2023-04-25T09:42:36.565Z,3.50
2023-04-25T09:45:03.867Z,3.50
2023-04-25T09:47:33.968Z,3.30
2023-04-25T09:50:01.281Z,2.90
2023-04-25T09:52:28.132Z,2.70
2023-04-25T09:55:13.115Z,3.00
2023-04-25T09:57:40.978Z,2.70
2023-04-25T10:00:12.034Z,3.30
2023-04-25T10:02:42.465Z,3.40
2023-04-25T10:05:10.580Z,3.10
2023-04-25T10:07:41.507Z,3.00
2023-04-25T10:10:16.651Z,2.90
2023-04-25T10:12:45.321Z,2.40
2023-04-25T10:15:12.227Z,3.20
2023-04-25T10:17:39.237Z,2.70
2023-04-25T10:20:13.663Z,3.10
2023-04-25T10:22:45.202Z,3.20
2023-04-25T10:25:12.301Z,3.30
2023-04-25T10:27:39.994Z,2.80
2023-04-25T10:30:13.814Z,3.10
2023-04-25T10:32:40.786Z,2.80
2023-04-25T10:35:17.456Z,2.90
2023-04-25T10:38:06.870Z,2.90
2023-04-25T10:40:34.260Z,2.80
2023-04-25T10:43:29.213Z,2.90
2023-04-25T10:45:56.077Z,3.20
2023-04-25T10:48:49.144Z,2.40
2023-04-25T10:51:37.148Z,2.30
2023-04-25T10:54:10.699Z,3.10
2023-04-25T10:56:38.998Z,2.70
2023-04-25T10:59:10.993Z,2.80
2023-04-25T11:01:42.551Z,2.60
2023-04-25T11:04:23.006Z,2.60
2023-04-25T11:07:06.360Z,2.60
2023-04-25T11:09:35.259Z,2.80
2023-04-25T11:12:02.114Z,3.10
2023-04-25T11:14:29.159Z,3.00
2023-04-25T11:17:00.371Z,3.00
2023-04-25T11:19:28.287Z,2.80
2023-04-25T11:21:59.154Z,3.30
2023-04-25T11:24:33.434Z,3.40
2023-04-25T11:27:00.273Z,3.00
2023-04-25T11:29:34.831Z,2.60
2023-04-25T11:32:02.365Z,2.90
2023-04-25T11:34:31.927Z,3.50
2023-04-25T11:36:59.126Z,2.50
2023-04-25T11:39:26.256Z,3.50
2023-04-25T11:41:53.880Z,2.50
2023-04-25T11:44:21.011Z,3.10
2023-04-25T11:46:48.343Z,2.80
2023-04-25T11:49:15.992Z,3.60
2023-04-25T11:51:44.343Z,2.80
2023-04-25T11:54:13.148Z,2.80
2023-04-25T11:56:43.775Z,3.00
2023-04-25T11:59:11.608Z,2.80
2023-04-25T12:01:41.959Z,2.70
2023-04-25T12:04:19.007Z,2.70
2023-04-25T12:06:49.694Z,2.40
2023-04-25T12:09:19.574Z,2.80
2023-04-25T12:11:48.183Z,3.10
2023-04-25T12:14:31.044Z,2.50
2023-04-25T12:17:00.700Z,2.90
2023-04-25T12:19:29.281Z,2.90
2023-04-25T12:21:58.825Z,2.80
2023-04-25T12:24:28.435Z,2.80
2023-04-25T12:27:06.306Z,2.80
2023-04-25T12:29:38.548Z,2.50
2023-04-25T12:33:03.873Z,2.70
2023-04-25T12:35:31.849Z,3.20
2023-04-25T12:37:58.725Z,2.70
2023-04-25T12:40:25.842Z,2.90
2023-04-25T12:42:52.720Z,3.60
2023-04-25T12:45:19.559Z,3.50
2023-04-25T12:47:46.878Z,3.30
2023-04-25T12:50:14.036Z,3.30
2023-04-25T12:52:40.834Z,3.60
2023-04-25T12:55:07.823Z,3.00
2023-04-25T12:57:34.692Z,2.40
2023-04-25T13:00:01.578Z,3.10
2023-04-25T13:02:28.558Z,2.50
2023-04-25T13:04:55.503Z,2.20
2023-04-25T13:07:22.263Z,2.40
2023-04-25T13:09:49.177Z,2.60
2023-04-25T13:12:16.646Z,2.50
2023-04-25T13:14:43.458Z,2.70
2023-04-25T13:17:10.383Z,2.80
2023-04-25T13:19:37.158Z,2.90
2023-04-25T13:22:05.374Z,2.90
2023-04-25T13:24:32.304Z,2.80
2023-04-25T13:26:59.250Z,2.80
2023-04-25T13:29:26.086Z,2.50
2023-04-25T13:31:53.037Z,3.00
2023-04-25T13:34:19.879Z,2.30
2023-04-25T13:36:47.103Z,2.60
2023-04-25T13:39:14.585Z,2.70
2023-04-25T13:41:41.620Z,2.00
2023-04-25T13:44:08.529Z,2.30
2023-04-25T13:46:46.232Z,2.20
2023-04-25T13:49:14.284Z,2.30
2023-04-25T13:51:41.645Z,2.40
2023-04-25T13:54:08.753Z,2.80
2023-04-25T13:56:35.749Z,2.80
2023-04-25T13:59:02.692Z,2.50
2023-04-25T14:01:31.627Z,2.10
2023-04-25T14:03:58.706Z,2.20
2023-04-25T14:06:26.395Z,2.00
2023-04-25T14:08:53.200Z,2.30
2023-04-25T14:11:20.214Z,2.60
2023-04-25T14:13:47.333Z,2.70
2023-04-25T14:16:14.214Z,2.20
2023-04-25T14:18:41.119Z,2.30
2023-04-25T14:21:08.008Z,2.60
2023-04-25T14:23:34.908Z,2.50
2023-04-25T14:26:01.861Z,2.40
2023-04-25T14:28:28.715Z,3.10
2023-04-25T14:30:55.736Z,2.20
2023-04-25T14:33:22.908Z,2.40
2023-04-25T14:35:49.809Z,2.80
2023-04-25T14:38:16.654Z,2.90
2023-04-25T14:40:43.600Z,2.80
2023-04-25T14:43:10.607Z,2.30
2023-04-25T14:45:37.437Z,3.60
2023-04-25T14:48:04.610Z,2.70
2023-04-25T14:50:31.767Z,2.80
2023-04-25T14:53:00.198Z,2.60
2023-04-25T14:55:30.076Z,2.10
2023-04-25T14:57:57.649Z,2.20
2023-04-25T15:00:26.220Z,2.60
2023-04-25T15:02:53.373Z,2.10
2023-04-25T15:05:21.142Z,2.20
2023-04-25T15:07:49.010Z,2.50
2023-04-25T15:10:17.234Z,2.30
2023-04-25T15:12:45.646Z,2.40
2023-04-25T15:15:22.506Z,2.20
2023-04-25T15:17:52.680Z,1.90
2023-04-25T15:20:19.572Z,2.10
2023-04-25T15:22:46.960Z,2.10
2023-04-25T15:25:13.892Z,2.50
2023-04-25T15:27:45.087Z,2.40
2023-04-25T15:30:13.640Z,2.40
2023-04-25T15:32:40.616Z,1.80
2023-04-25T15:35:07.806Z,1.80
2023-04-25T15:37:34.956Z,2.30
2023-04-25T15:40:14.222Z,2.10
2023-04-25T15:42:54.210Z,2.10
2023-04-25T15:45:26.401Z,2.10
2023-04-25T15:47:55.170Z,2.20
2023-04-25T15:50:22.394Z,2.20
2023-04-25T15:52:50.233Z,2.00
2023-04-25T15:55:17.556Z,2.00
2023-04-25T15:57:44.464Z,2.00
2023-04-25T16:00:13.277Z,2.40
2023-04-25T16:02:40.835Z,2.20
2023-04-25T16:05:09.107Z,2.10
2023-04-25T16:07:36.380Z,2.20
2023-04-25T16:10:03.486Z,2.10
2023-04-25T16:12:31.182Z,2.30
2023-04-25T16:14:58.424Z,2.30
2023-04-25T16:17:25.917Z,2.40
2023-04-25T16:19:52.767Z,2.20
2023-04-25T16:22:19.611Z,2.30
2023-04-25T16:24:46.547Z,2.40
2023-04-25T16:27:13.401Z,1.80
2023-04-25T16:29:41.371Z,1.90
2023-04-25T16:32:08.265Z,2.20
2023-04-25T16:34:35.201Z,2.50
2023-04-25T16:37:02.101Z,2.50
2023-04-25T16:39:28.939Z,2.60
2023-04-25T16:41:55.866Z,2.70
2023-04-25T16:44:22.708Z,3.70
2023-04-25T16:46:49.608Z,3.70
2023-04-25T16:49:16.594Z,3.80
2023-04-25T16:51:43.494Z,3.90
2023-04-25T16:54:10.360Z,3.50
2023-04-25T16:56:37.375Z,3.30
2023-04-25T16:59:04.236Z,3.30
2023-04-25T17:01:32.964Z,3.10
2023-04-25T17:04:00.203Z,3.40
2023-04-25T17:06:27.458Z,3.80
2023-04-25T17:08:54.633Z,3.60
2023-04-25T17:11:21.624Z,3.90
2023-04-25T17:13:48.510Z,3.40
2023-04-25T17:16:18.590Z,3.50
2023-04-25T17:18:45.424Z,3.50
2023-04-25T17:21:12.307Z,3.00
2023-04-25T17:23:44.906Z,3.00
2023-04-25T17:26:14.848Z,2.90
2023-04-25T17:28:42.293Z,3.50
2023-04-25T17:31:09.834Z,2.90
2023-04-25T17:33:36.888Z,2.90
2023-04-25T17:36:05.386Z,2.90
2023-04-25T17:38:32.823Z,3.00
2023-04-25T17:40:59.778Z,3.10
2023-04-25T17:43:27.726Z,3.50
2023-04-25T17:45:54.757Z,3.90
2023-04-25T17:48:25.051Z,3.50
2023-04-25T17:50:51.888Z,4.00
2023-04-25T17:53:18.738Z,6.90
2023-04-25T17:55:45.682Z,7.80
2023-04-25T17:58:12.573Z,8.70
2023-04-25T18:00:39.520Z,7.80
2023-04-25T18:03:07.035Z,5.50
2023-04-25T18:05:33.936Z,7.00
2023-04-25T18:08:00.940Z,5.50
2023-04-25T18:10:27.783Z,5.20
2023-04-25T18:12:54.829Z,4.20
2023-04-25T18:15:23.090Z,4.80
2023-04-25T18:17:50.325Z,5.60
2023-04-25T18:20:17.217Z,6.60
2023-04-25T18:22:44.769Z,5.20
2023-04-25T18:25:11.774Z,5.80
2023-04-25T18:27:38.869Z,6.90
2023-04-25T18:30:07.154Z,7.00
2023-04-25T18:32:34.058Z,5.40
2023-04-25T18:35:01.136Z,5.50
2023-04-25T18:37:28.405Z,6.30
2023-04-25T18:39:55.248Z,5.50
2023-04-25T18:42:22.564Z,6.30
2023-04-25T18:44:49.477Z,6.00
2023-04-25T18:47:16.711Z,7.00
2023-04-25T18:49:43.705Z,6.90
2023-04-25T18:52:12.310Z,6.60
2023-04-25T18:54:39.327Z,6.30
2023-04-25T18:57:06.296Z,6.00
2023-04-25T18:59:33.537Z,6.00
2023-04-25T19:02:05.434Z,6.50
2023-04-25T19:04:32.771Z,6.00
2023-04-25T19:06:59.839Z,6.60
2023-04-25T19:09:26.867Z,5.60
2023-04-25T19:11:54.206Z,6.40
2023-04-25T19:14:21.113Z,7.80
2023-04-25T19:16:48.185Z,8.50
2023-04-25T19:19:15.129Z,9.70
2023-04-25T19:21:42.042Z,8.90
2023-04-25T19:24:09.310Z,8.90
2023-04-25T19:26:36.705Z,7.50
2023-04-25T19:29:06.027Z,7.30
2023-04-25T19:31:34.996Z,6.70
2023-04-25T19:34:02.032Z,6.40
2023-04-25T19:36:28.907Z,5.80
2023-04-25T19:39:02.100Z,5.80
2023-04-25T19:41:29.532Z,6.30
2023-04-25T19:43:56.364Z,6.60
2023-04-25T19:46:23.746Z,5.80
2023-04-25T19:48:50.658Z,6.00
2023-04-25T19:51:17.770Z,5.80
2023-04-25T19:53:44.729Z,5.60
2023-04-25T19:56:11.573Z,6.80
2023-04-25T19:58:38.396Z,6.40
2023-04-25T20:01:05.431Z,6.00
2023-04-25T20:03:32.379Z,6.00
2023-04-25T20:05:59.317Z,6.70
2023-04-25T20:08:26.394Z,6.50
2023-04-25T20:10:53.339Z,7.60
2023-04-25T20:13:20.277Z,8.30
2023-04-25T20:15:47.116Z,7.40
2023-04-25T20:18:14.066Z,9.00
2023-04-25T20:20:41.129Z,8.10
2023-04-25T20:23:07.961Z,8.20
2023-04-25T20:25:34.853Z,7.60
2023-04-25T20:28:01.675Z,7.80
2023-04-25T20:30:28.516Z,7.20
2023-04-25T20:32:55.353Z,6.80
2023-04-25T20:35:23.057Z,6.60
2023-04-25T20:37:50.977Z,6.50
2023-04-25T20:40:18.340Z,6.00
2023-04-25T20:42:46.123Z,5.40
2023-04-25T20:45:14.640Z,4.70
2023-04-25T20:47:42.812Z,4.40
2023-04-25T20:50:11.062Z,4.60
2023-04-25T20:52:38.765Z,4.70
2023-04-25T20:55:06.977Z,4.40
2023-04-25T20:57:33.809Z,4.90
2023-04-25T21:00:00.695Z,4.50
2023-04-25T21:02:27.687Z,4.30
2023-04-25T21:04:54.699Z,4.70
2023-04-25T21:07:21.709Z,4.50
2023-04-25T21:09:48.707Z,4.40
2023-04-25T21:12:15.543Z,4.60
2023-04-25T21:14:42.349Z,4.40
2023-04-25T21:17:09.284Z,4.10
2023-04-25T21:19:36.101Z,4.40
2023-04-25T21:22:03.753Z,4.20
2023-04-25T21:24:33.211Z,4.30
2023-04-25T21:27:00.147Z,4.20
2023-04-25T21:29:27.063Z,4.30
2023-04-25T21:31:53.928Z,4.30
2023-04-25T21:34:20.850Z,4.20
2023-04-25T21:36:48.549Z,4.40
2023-04-25T21:39:15.493Z,4.50
2023-04-25T21:41:44.364Z,4.40
2023-04-25T21:44:12.698Z,4.30
2023-04-25T21:46:39.662Z,4.40
2023-04-25T21:49:07.091Z,4.50
2023-04-25T21:51:34.033Z,4.70
2023-04-25T21:54:05.216Z,5.20
2023-04-25T21:56:32.980Z,4.90
2023-04-25T21:58:59.848Z,4.70
2023-04-25T22:01:27.746Z,4.60
2023-04-25T22:03:55.106Z,5.30
2023-04-25T22:06:22.221Z,4.40
2023-04-25T22:08:49.129Z,4.40
2023-04-25T22:11:16.061Z,5.00
2023-04-25T22:13:43.035Z,5.10
2023-04-25T22:16:12.307Z,4.80
2023-04-25T22:18:40.496Z,4.40
2023-04-25T22:21:07.442Z,4.40
2023-04-25T22:23:35.023Z,4.60
2023-04-25T22:26:02.661Z,4.80
2023-04-25T22:28:29.683Z,4.50
2023-04-25T22:30:56.531Z,4.20
2023-04-25T22:33:23.385Z,4.70
2023-04-25T22:35:50.329Z,4.70
2023-04-25T22:38:17.321Z,5.10
2023-04-25T22:40:47.965Z,4.60
2023-04-25T22:43:15.932Z,4.80
2023-04-25T22:45:42.870Z,4.60
2023-04-25T22:48:09.957Z,4.90
2023-04-25T22:50:39.798Z,5.00
2023-04-25T22:53:07.589Z,5.20
2023-04-25T22:55:36.086Z,5.40
2023-04-25T22:58:08.648Z,4.90
2023-04-25T23:00:36.002Z,5.20
2023-04-25T23:03:04.064Z,5.20
2023-04-25T23:05:32.821Z,5.10
2023-04-25T23:07:59.839Z,5.60
2023-04-25T23:10:28.227Z,5.50
2023-04-25T23:12:58.113Z,4.90
2023-04-25T23:15:31.122Z,5.10
2023-04-25T23:17:58.453Z,5.40
2023-04-25T23:20:25.480Z,5.60
2023-04-25T23:22:52.723Z,4.80
2023-04-25T23:25:19.548Z,5.00
2023-04-25T23:27:46.412Z,5.40
2023-04-25T23:30:13.583Z,5.00
2023-04-25T23:32:40.607Z,4.70
2023-04-25T23:35:07.886Z,5.10
2023-04-25T23:37:35.723Z,4.40
2023-04-25T23:40:08.394Z,5.20
2023-04-25T23:42:36.523Z,5.30
2023-04-25T23:45:05.163Z,5.30
2023-04-25T23:47:32.492Z,5.40
2023-04-25T23:49:59.447Z,5.50
2023-04-25T23:52:27.968Z,5.20
2023-04-25T23:54:55.668Z,5.30
2023-04-25T23:57:22.928Z,5.70
2023-04-25T23:59:49.798Z,5.90
